sensor_id;sensor_type;location;lat;lon;timestamp;temperature;humidity
38458;DHT22;24239;48.058;10.486;2023-07-31T00:00:27;14.50;99.90
38458;DHT22;24239;48.058;10.486;2023-07-31T00:02:54;14.40;99.90
38458;DHT22;24239;48.058;10.486;2023-07-31T00:05:20;14.40;99.90
38458;DHT22;24239;48.058;10.486;2023-07-31T00:07:47;14.40;99.90
38458;DHT22;24239;48.058;10.486;2023-07-31T00:10:12;14.40;99.90
38458;DHT22;24239;48.058;10.486;2023-07-31T00:12:40;14.40;99.90
38458;DHT22;24239;48.058;10.486;2023-07-31T00:15:07;14.30;99.90
38458;DHT22;24239;48.058;10.486;2023-07-31T00:17:33;14.30;99.90
38458;DHT22;24239;48.058;10.486;2023-07-31T00:19:58;14.30;99.90
38458;DHT22;24239;48.058;10.486;2023-07-31T00:22:24;14.20;99.90
38458;DHT22;24239;48.058;10.486;2023-07-31T00:24:50;14.20;99.90
38458;DHT22;24239;48.058;10.486;2023-07-31T00:27:16;14.10;99.90
38458;DHT22;24239;48.058;10.486;2023-07-31T00:29:41;14.10;99.90
38458;DHT22;24239;48.058;10.486;2023-07-31T00:32:07;14.10;99.90
38458;DHT22;24239;48.058;10.486;2023-07-31T00:34:33;14.10;99.90
38458;DHT22;24239;48.058;10.486;2023-07-31T00:36:59;14.00;99.90
38458;DHT22;24239;48.058;10.486;2023-07-31T00:39:24;14.00;99.90
38458;DHT22;24239;48.058;10.486;2023-07-31T00:41:50;14.00;99.90
38458;DHT22;24239;48.058;10.486;2023-07-31T00:44:16;14.00;99.90
38458;DHT22;24239;48.058;10.486;2023-07-31T00:46:42;13.90;99.90
38458;DHT22;24239;48.058;10.486;2023-07-31T00:49:08;14.00;99.90
38458;DHT22;24239;48.058;10.486;2023-07-31T00:51:34;14.00;99.90
38458;DHT22;24239;48.058;10.486;2023-07-31T00:54:00;14.00;99.90
38458;DHT22;24239;48.058;10.486;2023-07-31T00:56:27;14.00;99.90
38458;DHT22;24239;48.058;10.486;2023-07-31T00:58:53;14.00;99.90
38458;DHT22;24239;48.058;10.486;2023-07-31T01:01:19;14.10;99.90
38458;DHT22;24239;48.058;10.486;2023-07-31T01:03:45;14.10;99.90
38458;DHT22;24239;48.058;10.486;2023-07-31T01:09:02;14.10;99.90
38458;DHT22;24239;48.058;10.486;2023-07-31T01:11:35;14.20;99.90
38458;DHT22;24239;48.058;10.486;2023-07-31T01:14:04;14.20;99.90
38458;DHT22;24239;48.058;10.486;2023-07-31T01:16:30;14.20;99.90
38458;DHT22;24239;48.058;10.486;2023-07-31T01:18:55;14.30;99.90
38458;DHT22;24239;48.058;10.486;2023-07-31T01:26:38;14.30;99.90
38458;DHT22;24239;48.058;10.486;2023-07-31T01:31:34;14.30;99.90
38458;DHT22;24239;48.058;10.486;2023-07-31T01:34:01;14.30;99.90
38458;DHT22;24239;48.058;10.486;2023-07-31T01:36:28;14.30;99.90
38458;DHT22;24239;48.058;10.486;2023-07-31T01:39:03;14.20;99.90
38458;DHT22;24239;48.058;10.486;2023-07-31T01:41:29;14.20;99.90
38458;DHT22;24239;48.058;10.486;2023-07-31T01:43:55;14.10;99.90
38458;DHT22;24239;48.058;10.486;2023-07-31T01:46:20;14.10;99.90
38458;DHT22;24239;48.058;10.486;2023-07-31T01:48:46;14.00;99.90
38458;DHT22;24239;48.058;10.486;2023-07-31T01:51:12;14.00;99.90
38458;DHT22;24239;48.058;10.486;2023-07-31T01:53:38;13.90;99.90
38458;DHT22;24239;48.058;10.486;2023-07-31T01:56:03;13.90;99.90
38458;DHT22;24239;48.058;10.486;2023-07-31T01:58:29;13.80;99.90
38458;DHT22;24239;48.058;10.486;2023-07-31T02:00:55;13.80;99.90
38458;DHT22;24239;48.058;10.486;2023-07-31T02:03:20;13.80;99.90
38458;DHT22;24239;48.058;10.486;2023-07-31T02:05:49;13.80;99.90
38458;DHT22;24239;48.058;10.486;2023-07-31T02:08:16;13.80;99.90
38458;DHT22;24239;48.058;10.486;2023-07-31T02:10:41;13.70;99.90
38458;DHT22;24239;48.058;10.486;2023-07-31T02:13:07;13.70;99.90
38458;DHT22;24239;48.058;10.486;2023-07-31T02:15:33;13.80;99.90
38458;DHT22;24239;48.058;10.486;2023-07-31T02:17:59;13.80;99.90
38458;DHT22;24239;48.058;10.486;2023-07-31T02:20:25;13.80;99.90
38458;DHT22;24239;48.058;10.486;2023-07-31T02:22:51;13.80;99.90
38458;DHT22;24239;48.058;10.486;2023-07-31T02:25:16;13.80;99.90
38458;DHT22;24239;48.058;10.486;2023-07-31T02:27:42;13.80;99.90
38458;DHT22;24239;48.058;10.486;2023-07-31T02:30:09;13.70;99.90
38458;DHT22;24239;48.058;10.486;2023-07-31T02:32:34;13.60;99.90
38458;DHT22;24239;48.058;10.486;2023-07-31T02:35:00;13.60;99.90
38458;DHT22;24239;48.058;10.486;2023-07-31T02:37:26;13.50;99.90
38458;DHT22;24239;48.058;10.486;2023-07-31T02:39:54;13.50;99.90
38458;DHT22;24239;48.058;10.486;2023-07-31T02:42:20;13.40;99.90
38458;DHT22;24239;48.058;10.486;2023-07-31T02:44:46;13.40;99.90
38458;DHT22;24239;48.058;10.486;2023-07-31T02:47:11;13.40;99.90
38458;DHT22;24239;48.058;10.486;2023-07-31T02:49:37;13.40;99.90
38458;DHT22;24239;48.058;10.486;2023-07-31T02:52:03;13.50;99.90
38458;DHT22;24239;48.058;10.486;2023-07-31T02:54:29;13.50;99.90
38458;DHT22;24239;48.058;10.486;2023-07-31T02:56:55;13.60;99.90
38458;DHT22;24239;48.058;10.486;2023-07-31T02:59:21;13.60;99.90
38458;DHT22;24239;48.058;10.486;2023-07-31T03:01:46;13.60;99.90
38458;DHT22;24239;48.058;10.486;2023-07-31T03:04:12;13.60;99.90
38458;DHT22;24239;48.058;10.486;2023-07-31T03:06:38;13.70;99.90
38458;DHT22;24239;48.058;10.486;2023-07-31T03:09:04;13.80;99.90
38458;DHT22;24239;48.058;10.486;2023-07-31T03:11:29;13.90;99.90
38458;DHT22;24239;48.058;10.486;2023-07-31T03:13:55;13.90;99.90
38458;DHT22;24239;48.058;10.486;2023-07-31T03:16:21;14.00;99.90
38458;DHT22;24239;48.058;10.486;2023-07-31T03:18:47;14.10;99.90
38458;DHT22;24239;48.058;10.486;2023-07-31T03:21:14;14.20;99.90
38458;DHT22;24239;48.058;10.486;2023-07-31T03:23:40;14.30;99.90
38458;DHT22;24239;48.058;10.486;2023-07-31T03:26:07;14.40;99.90
38458;DHT22;24239;48.058;10.486;2023-07-31T03:28:33;14.50;99.90
38458;DHT22;24239;48.058;10.486;2023-07-31T03:30:59;14.50;99.90
38458;DHT22;24239;48.058;10.486;2023-07-31T03:33:25;14.50;99.90
38458;DHT22;24239;48.058;10.486;2023-07-31T03:35:52;14.50;99.90
38458;DHT22;24239;48.058;10.486;2023-07-31T03:38:18;14.50;99.90
38458;DHT22;24239;48.058;10.486;2023-07-31T03:40:44;14.60;99.90
38458;DHT22;24239;48.058;10.486;2023-07-31T03:43:10;14.60;99.90
38458;DHT22;24239;48.058;10.486;2023-07-31T03:45:36;14.60;99.90
38458;DHT22;24239;48.058;10.486;2023-07-31T03:48:01;14.60;99.90
38458;DHT22;24239;48.058;10.486;2023-07-31T03:50:27;14.70;99.90
38458;DHT22;24239;48.058;10.486;2023-07-31T03:52:53;14.70;99.90
38458;DHT22;24239;48.058;10.486;2023-07-31T03:55:19;14.70;99.90
38458;DHT22;24239;48.058;10.486;2023-07-31T03:57:44;14.80;99.90
38458;DHT22;24239;48.058;10.486;2023-07-31T04:00:10;14.80;99.90
38458;DHT22;24239;48.058;10.486;2023-07-31T04:02:36;14.90;99.90
38458;DHT22;24239;48.058;10.486;2023-07-31T04:05:02;14.90;99.90
38458;DHT22;24239;48.058;10.486;2023-07-31T04:07:28;14.90;99.90
38458;DHT22;24239;48.058;10.486;2023-07-31T04:09:54;15.00;99.90
38458;DHT22;24239;48.058;10.486;2023-07-31T04:12:19;15.00;99.90
38458;DHT22;24239;48.058;10.486;2023-07-31T04:14:45;15.00;99.90
38458;DHT22;24239;48.058;10.486;2023-07-31T04:17:11;15.00;99.90
38458;DHT22;24239;48.058;10.486;2023-07-31T04:19:36;15.10;99.90
38458;DHT22;24239;48.058;10.486;2023-07-31T04:22:03;15.10;99.90
38458;DHT22;24239;48.058;10.486;2023-07-31T04:24:29;15.30;99.90
38458;DHT22;24239;48.058;10.486;2023-07-31T04:26:55;15.30;99.90
38458;DHT22;24239;48.058;10.486;2023-07-31T04:29:22;15.50;99.90
38458;DHT22;24239;48.058;10.486;2023-07-31T04:31:48;15.70;99.90
38458;DHT22;24239;48.058;10.486;2023-07-31T04:34:14;15.90;99.90
38458;DHT22;24239;48.058;10.486;2023-07-31T04:36:40;16.10;99.90
38458;DHT22;24239;48.058;10.486;2023-07-31T04:39:06;16.30;99.90
38458;DHT22;24239;48.058;10.486;2023-07-31T04:41:32;16.40;99.90
38458;DHT22;24239;48.058;10.486;2023-07-31T04:43:57;16.70;99.90
38458;DHT22;24239;48.058;10.486;2023-07-31T04:46:23;16.80;99.90
38458;DHT22;24239;48.058;10.486;2023-07-31T04:48:49;16.70;99.90
38458;DHT22;24239;48.058;10.486;2023-07-31T04:51:15;16.60;99.90
38458;DHT22;24239;48.058;10.486;2023-07-31T04:53:40;16.40;99.90
38458;DHT22;24239;48.058;10.486;2023-07-31T04:56:06;16.40;99.90
38458;DHT22;24239;48.058;10.486;2023-07-31T04:58:32;16.30;99.90
38458;DHT22;24239;48.058;10.486;2023-07-31T05:00:57;16.30;99.90
38458;DHT22;24239;48.058;10.486;2023-07-31T05:03:23;16.30;99.90
38458;DHT22;24239;48.058;10.486;2023-07-31T05:05:50;16.30;99.90
38458;DHT22;24239;48.058;10.486;2023-07-31T05:08:16;16.30;99.90
38458;DHT22;24239;48.058;10.486;2023-07-31T05:10:43;16.30;99.90
38458;DHT22;24239;48.058;10.486;2023-07-31T05:13:09;16.30;99.90
38458;DHT22;24239;48.058;10.486;2023-07-31T05:15:35;16.40;99.90
38458;DHT22;24239;48.058;10.486;2023-07-31T05:18:00;16.50;99.90
38458;DHT22;24239;48.058;10.486;2023-07-31T05:20:26;16.60;99.90
38458;DHT22;24239;48.058;10.486;2023-07-31T05:22:53;16.70;99.90
38458;DHT22;24239;48.058;10.486;2023-07-31T05:25:19;16.70;99.90
38458;DHT22;24239;48.058;10.486;2023-07-31T05:27:45;16.50;99.90
38458;DHT22;24239;48.058;10.486;2023-07-31T05:30:10;16.50;99.90
38458;DHT22;24239;48.058;10.486;2023-07-31T05:32:36;16.50;99.90
38458;DHT22;24239;48.058;10.486;2023-07-31T05:35:02;16.50;99.90
38458;DHT22;24239;48.058;10.486;2023-07-31T05:37:28;16.30;99.90
38458;DHT22;24239;48.058;10.486;2023-07-31T05:39:54;16.40;99.90
38458;DHT22;24239;48.058;10.486;2023-07-31T05:42:19;16.40;99.90
38458;DHT22;24239;48.058;10.486;2023-07-31T05:44:45;16.50;99.90
38458;DHT22;24239;48.058;10.486;2023-07-31T05:47:12;16.60;99.90
38458;DHT22;24239;48.058;10.486;2023-07-31T05:49:38;16.60;99.90
38458;DHT22;24239;48.058;10.486;2023-07-31T05:52:04;16.70;99.90
38458;DHT22;24239;48.058;10.486;2023-07-31T05:54:31;16.60;99.90
38458;DHT22;24239;48.058;10.486;2023-07-31T05:56:57;16.70;99.90
38458;DHT22;24239;48.058;10.486;2023-07-31T05:59:22;16.80;99.90
38458;DHT22;24239;48.058;10.486;2023-07-31T06:01:48;16.80;99.90
38458;DHT22;24239;48.058;10.486;2023-07-31T06:04:14;16.70;99.90
38458;DHT22;24239;48.058;10.486;2023-07-31T06:06:40;16.90;99.90
38458;DHT22;24239;48.058;10.486;2023-07-31T06:09:06;16.90;99.90
38458;DHT22;24239;48.058;10.486;2023-07-31T06:11:32;17.00;99.90
38458;DHT22;24239;48.058;10.486;2023-07-31T06:13:58;17.10;99.90
38458;DHT22;24239;48.058;10.486;2023-07-31T06:16:25;17.10;99.90
38458;DHT22;24239;48.058;10.486;2023-07-31T06:18:51;17.10;99.90
38458;DHT22;24239;48.058;10.486;2023-07-31T06:21:17;17.20;99.90
38458;DHT22;24239;48.058;10.486;2023-07-31T06:23:42;17.30;99.90
38458;DHT22;24239;48.058;10.486;2023-07-31T06:26:08;17.30;99.90
38458;DHT22;24239;48.058;10.486;2023-07-31T06:28:34;17.30;99.90
38458;DHT22;24239;48.058;10.486;2023-07-31T06:31:00;17.40;99.90
38458;DHT22;24239;48.058;10.486;2023-07-31T06:33:27;17.40;99.90
38458;DHT22;24239;48.058;10.486;2023-07-31T06:35:52;17.40;99.90
38458;DHT22;24239;48.058;10.486;2023-07-31T06:38:27;17.40;99.90
38458;DHT22;24239;48.058;10.486;2023-07-31T06:40:53;17.30;99.90
38458;DHT22;24239;48.058;10.486;2023-07-31T06:43:19;17.40;99.90
38458;DHT22;24239;48.058;10.486;2023-07-31T06:45:45;17.60;99.90
38458;DHT22;24239;48.058;10.486;2023-07-31T06:48:11;17.80;99.90
38458;DHT22;24239;48.058;10.486;2023-07-31T06:50:37;18.00;99.90
38458;DHT22;24239;48.058;10.486;2023-07-31T06:53:03;18.00;99.90
38458;DHT22;24239;48.058;10.486;2023-07-31T06:55:28;18.10;99.90
38458;DHT22;24239;48.058;10.486;2023-07-31T06:57:55;18.40;99.90
38458;DHT22;24239;48.058;10.486;2023-07-31T07:00:22;18.40;99.90
38458;DHT22;24239;48.058;10.486;2023-07-31T07:02:48;18.50;99.90
38458;DHT22;24239;48.058;10.486;2023-07-31T07:05:16;18.60;99.90
38458;DHT22;24239;48.058;10.486;2023-07-31T07:07:42;18.70;99.90
38458;DHT22;24239;48.058;10.486;2023-07-31T07:10:08;18.80;99.90
38458;DHT22;24239;48.058;10.486;2023-07-31T07:12:34;19.00;99.90
38458;DHT22;24239;48.058;10.486;2023-07-31T07:15:01;19.20;99.90
38458;DHT22;24239;48.058;10.486;2023-07-31T07:17:28;19.20;99.90
38458;DHT22;24239;48.058;10.486;2023-07-31T07:19:56;19.20;99.90
38458;DHT22;24239;48.058;10.486;2023-07-31T07:22:23;19.10;99.90
38458;DHT22;24239;48.058;10.486;2023-07-31T07:24:48;19.10;99.90
38458;DHT22;24239;48.058;10.486;2023-07-31T07:27:14;19.10;99.90
38458;DHT22;24239;48.058;10.486;2023-07-31T07:29:40;19.10;99.90
38458;DHT22;24239;48.058;10.486;2023-07-31T07:32:06;19.00;99.90
38458;DHT22;24239;48.058;10.486;2023-07-31T07:34:32;19.00;99.90
38458;DHT22;24239;48.058;10.486;2023-07-31T07:36:57;18.90;99.90
38458;DHT22;24239;48.058;10.486;2023-07-31T07:39:23;18.90;99.90
38458;DHT22;24239;48.058;10.486;2023-07-31T07:41:52;18.80;99.90
38458;DHT22;24239;48.058;10.486;2023-07-31T07:44:18;18.80;99.90
38458;DHT22;24239;48.058;10.486;2023-07-31T07:46:44;18.50;99.90
38458;DHT22;24239;48.058;10.486;2023-07-31T07:49:10;18.50;99.90
38458;DHT22;24239;48.058;10.486;2023-07-31T07:51:36;18.40;99.90
38458;DHT22;24239;48.058;10.486;2023-07-31T07:54:02;18.30;99.90
38458;DHT22;24239;48.058;10.486;2023-07-31T07:56:28;18.30;99.90
38458;DHT22;24239;48.058;10.486;2023-07-31T07:58:54;18.20;99.90
38458;DHT22;24239;48.058;10.486;2023-07-31T08:01:20;18.20;99.90
38458;DHT22;24239;48.058;10.486;2023-07-31T08:03:47;18.30;99.90
38458;DHT22;24239;48.058;10.486;2023-07-31T08:06:13;18.30;99.90
38458;DHT22;24239;48.058;10.486;2023-07-31T08:08:39;18.40;99.90
38458;DHT22;24239;48.058;10.486;2023-07-31T08:11:06;18.40;99.90
38458;DHT22;24239;48.058;10.486;2023-07-31T08:13:31;18.60;99.90
38458;DHT22;24239;48.058;10.486;2023-07-31T08:15:57;18.80;99.90
38458;DHT22;24239;48.058;10.486;2023-07-31T08:18:23;18.80;99.90
38458;DHT22;24239;48.058;10.486;2023-07-31T08:20:49;18.80;99.90
38458;DHT22;24239;48.058;10.486;2023-07-31T08:23:14;19.00;99.90
38458;DHT22;24239;48.058;10.486;2023-07-31T08:25:40;19.00;99.90
38458;DHT22;24239;48.058;10.486;2023-07-31T08:28:06;19.10;99.90
38458;DHT22;24239;48.058;10.486;2023-07-31T08:30:32;19.10;99.90
38458;DHT22;24239;48.058;10.486;2023-07-31T08:33:02;19.10;99.90
38458;DHT22;24239;48.058;10.486;2023-07-31T08:35:28;19.10;99.90
38458;DHT22;24239;48.058;10.486;2023-07-31T08:37:54;19.00;99.90
38458;DHT22;24239;48.058;10.486;2023-07-31T08:40:20;19.00;99.90
38458;DHT22;24239;48.058;10.486;2023-07-31T08:42:50;19.10;99.90
38458;DHT22;24239;48.058;10.486;2023-07-31T08:45:18;19.10;99.90
38458;DHT22;24239;48.058;10.486;2023-07-31T08:47:52;19.00;99.90
38458;DHT22;24239;48.058;10.486;2023-07-31T08:50:19;19.00;99.90
38458;DHT22;24239;48.058;10.486;2023-07-31T08:52:50;19.10;99.90
38458;DHT22;24239;48.058;10.486;2023-07-31T08:55:16;19.30;99.90
38458;DHT22;24239;48.058;10.486;2023-07-31T08:57:43;19.60;99.90
38458;DHT22;24239;48.058;10.486;2023-07-31T09:00:10;19.60;99.90
38458;DHT22;24239;48.058;10.486;2023-07-31T09:02:41;19.70;99.90
38458;DHT22;24239;48.058;10.486;2023-07-31T09:05:11;19.90;99.90
38458;DHT22;24239;48.058;10.486;2023-07-31T09:07:37;20.00;99.90
38458;DHT22;24239;48.058;10.486;2023-07-31T09:10:04;20.00;99.90
38458;DHT22;24239;48.058;10.486;2023-07-31T09:12:30;19.90;99.90
38458;DHT22;24239;48.058;10.486;2023-07-31T09:14:58;19.90;99.90
38458;DHT22;24239;48.058;10.486;2023-07-31T09:17:35;20.10;99.90
38458;DHT22;24239;48.058;10.486;2023-07-31T09:20:19;20.40;99.90
38458;DHT22;24239;48.058;10.486;2023-07-31T09:22:46;20.10;99.90
38458;DHT22;24239;48.058;10.486;2023-07-31T09:25:17;20.10;99.90
38458;DHT22;24239;48.058;10.486;2023-07-31T09:28:03;20.30;99.90
38458;DHT22;24239;48.058;10.486;2023-07-31T09:30:29;20.30;99.90
38458;DHT22;24239;48.058;10.486;2023-07-31T09:33:05;20.30;99.90
38458;DHT22;24239;48.058;10.486;2023-07-31T09:35:34;20.20;99.90
38458;DHT22;24239;48.058;10.486;2023-07-31T09:38:03;20.40;99.90
38458;DHT22;24239;48.058;10.486;2023-07-31T09:40:30;20.60;99.90
38458;DHT22;24239;48.058;10.486;2023-07-31T09:43:01;20.80;99.90
38458;DHT22;24239;48.058;10.486;2023-07-31T09:45:27;21.00;99.90
38458;DHT22;24239;48.058;10.486;2023-07-31T09:47:54;20.90;99.90
38458;DHT22;24239;48.058;10.486;2023-07-31T09:50:24;20.50;99.90
38458;DHT22;24239;48.058;10.486;2023-07-31T09:52:51;20.40;99.90
38458;DHT22;24239;48.058;10.486;2023-07-31T09:55:17;20.60;99.90
38458;DHT22;24239;48.058;10.486;2023-07-31T09:57:46;20.80;99.90
38458;DHT22;24239;48.058;10.486;2023-07-31T10:00:13;21.00;99.90
38458;DHT22;24239;48.058;10.486;2023-07-31T10:02:39;21.30;99.90
38458;DHT22;24239;48.058;10.486;2023-07-31T10:05:07;21.50;99.90
38458;DHT22;24239;48.058;10.486;2023-07-31T10:07:37;21.50;99.90
38458;DHT22;24239;48.058;10.486;2023-07-31T10:10:05;21.60;99.90
38458;DHT22;24239;48.058;10.486;2023-07-31T10:12:33;21.60;99.90
38458;DHT22;24239;48.058;10.486;2023-07-31T10:15:00;21.60;99.90
38458;DHT22;24239;48.058;10.486;2023-07-31T10:17:26;21.40;99.90
38458;DHT22;24239;48.058;10.486;2023-07-31T10:19:53;21.10;99.90
38458;DHT22;24239;48.058;10.486;2023-07-31T10:22:20;20.90;99.90
38458;DHT22;24239;48.058;10.486;2023-07-31T10:24:46;21.00;99.90
38458;DHT22;24239;48.058;10.486;2023-07-31T10:27:14;21.20;99.90
38458;DHT22;24239;48.058;10.486;2023-07-31T10:29:41;21.50;99.90
38458;DHT22;24239;48.058;10.486;2023-07-31T10:32:09;21.50;99.90
38458;DHT22;24239;48.058;10.486;2023-07-31T10:34:38;21.40;99.90
38458;DHT22;24239;48.058;10.486;2023-07-31T10:37:27;21.20;99.90
38458;DHT22;24239;48.058;10.486;2023-07-31T10:40:27;21.20;99.90
38458;DHT22;24239;48.058;10.486;2023-07-31T10:42:56;21.10;99.90
38458;DHT22;24239;48.058;10.486;2023-07-31T10:47:58;21.10;99.90
38458;DHT22;24239;48.058;10.486;2023-07-31T10:50:26;21.20;99.90
38458;DHT22;24239;48.058;10.486;2023-07-31T10:52:53;21.30;99.90
38458;DHT22;24239;48.058;10.486;2023-07-31T10:58:08;21.40;99.90
38458;DHT22;24239;48.058;10.486;2023-07-31T11:00:37;21.40;99.90
38458;DHT22;24239;48.058;10.486;2023-07-31T11:03:15;21.50;99.90
38458;DHT22;24239;48.058;10.486;2023-07-31T11:10:38;21.20;99.90
38458;DHT22;24239;48.058;10.486;2023-07-31T11:13:04;21.40;99.90
38458;DHT22;24239;48.058;10.486;2023-07-31T11:15:31;21.70;99.90
38458;DHT22;24239;48.058;10.486;2023-07-31T11:17:56;22.10;99.90
38458;DHT22;24239;48.058;10.486;2023-07-31T11:20:25;22.40;99.90
38458;DHT22;24239;48.058;10.486;2023-07-31T11:22:51;22.70;99.90
38458;DHT22;24239;48.058;10.486;2023-07-31T11:25:18;22.80;99.90
38458;DHT22;24239;48.058;10.486;2023-07-31T11:27:43;22.60;99.60
38458;DHT22;24239;48.058;10.486;2023-07-31T11:30:10;22.30;99.30
38458;DHT22;24239;48.058;10.486;2023-07-31T11:32:37;22.30;99.80
38458;DHT22;24239;48.058;10.486;2023-07-31T11:35:03;22.40;99.90
38458;DHT22;24239;48.058;10.486;2023-07-31T11:37:43;22.60;99.90
38458;DHT22;24239;48.058;10.486;2023-07-31T11:40:12;22.80;99.70
38458;DHT22;24239;48.058;10.486;2023-07-31T11:42:38;22.70;99.20
38458;DHT22;24239;48.058;10.486;2023-07-31T11:45:08;22.70;99.40
38458;DHT22;24239;48.058;10.486;2023-07-31T11:47:37;22.60;99.90
38458;DHT22;24239;48.058;10.486;2023-07-31T11:50:04;22.40;99.90
38458;DHT22;24239;48.058;10.486;2023-07-31T11:52:34;22.40;99.90
38458;DHT22;24239;48.058;10.486;2023-07-31T11:55:03;22.60;99.70
38458;DHT22;24239;48.058;10.486;2023-07-31T11:57:29;22.60;99.90
38458;DHT22;24239;48.058;10.486;2023-07-31T11:59:55;22.90;99.60
38458;DHT22;24239;48.058;10.486;2023-07-31T12:02:22;23.00;98.80
38458;DHT22;24239;48.058;10.486;2023-07-31T12:04:49;23.00;98.00
38458;DHT22;24239;48.058;10.486;2023-07-31T12:07:14;22.90;98.30
38458;DHT22;24239;48.058;10.486;2023-07-31T12:09:54;22.90;99.50
38458;DHT22;24239;48.058;10.486;2023-07-31T12:12:25;22.90;99.60
38458;DHT22;24239;48.058;10.486;2023-07-31T12:14:51;22.90;98.80
38458;DHT22;24239;48.058;10.486;2023-07-31T12:17:18;22.90;98.80
38458;DHT22;24239;48.058;10.486;2023-07-31T12:19:44;23.00;98.10
38458;DHT22;24239;48.058;10.486;2023-07-31T12:22:14;23.10;97.70
38458;DHT22;24239;48.058;10.486;2023-07-31T12:24:44;22.90;98.20
38458;DHT22;24239;48.058;10.486;2023-07-31T12:27:14;23.00;99.50
38458;DHT22;24239;48.058;10.486;2023-07-31T12:29:43;23.30;97.60
38458;DHT22;24239;48.058;10.486;2023-07-31T12:32:23;23.60;98.10
38458;DHT22;24239;48.058;10.486;2023-07-31T12:34:54;23.60;97.60
38458;DHT22;24239;48.058;10.486;2023-07-31T12:37:21;23.60;97.50
38458;DHT22;24239;48.058;10.486;2023-07-31T12:39:47;23.40;97.70
38458;DHT22;24239;48.058;10.486;2023-07-31T12:42:13;23.40;97.30
38458;DHT22;24239;48.058;10.486;2023-07-31T12:44:38;23.10;97.90
38458;DHT22;24239;48.058;10.486;2023-07-31T12:47:05;23.00;97.90
38458;DHT22;24239;48.058;10.486;2023-07-31T12:49:31;23.00;98.30
38458;DHT22;24239;48.058;10.486;2023-07-31T12:51:59;23.10;97.60
38458;DHT22;24239;48.058;10.486;2023-07-31T12:54:25;23.30;98.70
38458;DHT22;24239;48.058;10.486;2023-07-31T12:56:51;23.40;98.00
38458;DHT22;24239;48.058;10.486;2023-07-31T12:59:16;23.50;97.20
38458;DHT22;24239;48.058;10.486;2023-07-31T13:01:42;23.50;96.20
38458;DHT22;24239;48.058;10.486;2023-07-31T13:04:08;23.50;96.60
38458;DHT22;24239;48.058;10.486;2023-07-31T13:06:34;23.70;98.30
38458;DHT22;24239;48.058;10.486;2023-07-31T13:08:59;23.90;96.80
38458;DHT22;24239;48.058;10.486;2023-07-31T13:11:25;24.00;95.90
38458;DHT22;24239;48.058;10.486;2023-07-31T13:13:51;23.90;96.30
38458;DHT22;24239;48.058;10.486;2023-07-31T13:16:17;23.90;95.70
38458;DHT22;24239;48.058;10.486;2023-07-31T13:18:42;23.70;95.90
38458;DHT22;24239;48.058;10.486;2023-07-31T13:21:08;23.70;96.80
38458;DHT22;24239;48.058;10.486;2023-07-31T13:23:34;23.90;97.30
38458;DHT22;24239;48.058;10.486;2023-07-31T13:26:00;23.90;95.50
38458;DHT22;24239;48.058;10.486;2023-07-31T13:28:25;23.90;96.60
38458;DHT22;24239;48.058;10.486;2023-07-31T13:30:51;24.00;96.40
38458;DHT22;24239;48.058;10.486;2023-07-31T13:33:17;24.10;96.00
38458;DHT22;24239;48.058;10.486;2023-07-31T13:35:42;24.00;95.80
38458;DHT22;24239;48.058;10.486;2023-07-31T13:38:08;23.90;95.70
38458;DHT22;24239;48.058;10.486;2023-07-31T13:40:34;24.00;95.60
38458;DHT22;24239;48.058;10.486;2023-07-31T13:43:00;24.00;96.30
38458;DHT22;24239;48.058;10.486;2023-07-31T13:45:26;24.10;95.90
38458;DHT22;24239;48.058;10.486;2023-07-31T13:47:52;24.30;96.90
38458;DHT22;24239;48.058;10.486;2023-07-31T13:50:17;24.20;95.40
38458;DHT22;24239;48.058;10.486;2023-07-31T13:52:46;24.10;95.20
38458;DHT22;24239;48.058;10.486;2023-07-31T13:55:12;23.90;95.60
38458;DHT22;24239;48.058;10.486;2023-07-31T13:57:38;23.80;96.00
38458;DHT22;24239;48.058;10.486;2023-07-31T14:00:04;23.70;95.80
38458;DHT22;24239;48.058;10.486;2023-07-31T14:02:30;24.10;96.30
38458;DHT22;24239;48.058;10.486;2023-07-31T14:04:55;24.10;94.70
38458;DHT22;24239;48.058;10.486;2023-07-31T14:07:21;24.30;95.50
38458;DHT22;24239;48.058;10.486;2023-07-31T14:09:47;24.30;94.30
38458;DHT22;24239;48.058;10.486;2023-07-31T14:12:12;24.30;94.20
38458;DHT22;24239;48.058;10.486;2023-07-31T14:14:38;24.50;95.50
38458;DHT22;24239;48.058;10.486;2023-07-31T14:17:04;24.70;94.30
38458;DHT22;24239;48.058;10.486;2023-07-31T14:19:30;24.60;94.20
38458;DHT22;24239;48.058;10.486;2023-07-31T14:21:58;24.50;94.00
38458;DHT22;24239;48.058;10.486;2023-07-31T14:24:24;24.30;94.40
38458;DHT22;24239;48.058;10.486;2023-07-31T14:26:50;24.30;94.60
38458;DHT22;24239;48.058;10.486;2023-07-31T14:29:16;24.50;96.10
38458;DHT22;24239;48.058;10.486;2023-07-31T14:31:41;24.80;94.60
38458;DHT22;24239;48.058;10.486;2023-07-31T14:34:07;24.90;93.30
38458;DHT22;24239;48.058;10.486;2023-07-31T14:36:33;24.70;94.20
38458;DHT22;24239;48.058;10.486;2023-07-31T14:38:59;24.60;94.60
38458;DHT22;24239;48.058;10.486;2023-07-31T14:41:24;24.40;95.10
38458;DHT22;24239;48.058;10.486;2023-07-31T14:43:50;24.50;95.70
38458;DHT22;24239;48.058;10.486;2023-07-31T14:46:16;24.50;94.90
38458;DHT22;24239;48.058;10.486;2023-07-31T14:48:42;24.30;95.00
38458;DHT22;24239;48.058;10.486;2023-07-31T14:51:07;24.40;95.70
38458;DHT22;24239;48.058;10.486;2023-07-31T14:53:33;24.40;94.90
38458;DHT22;24239;48.058;10.486;2023-07-31T14:55:59;24.20;95.20
38458;DHT22;24239;48.058;10.486;2023-07-31T14:58:25;24.10;95.60
38458;DHT22;24239;48.058;10.486;2023-07-31T15:00:50;24.00;95.60
38458;DHT22;24239;48.058;10.486;2023-07-31T15:03:16;23.90;96.10
38458;DHT22;24239;48.058;10.486;2023-07-31T15:05:42;23.80;95.30
38458;DHT22;24239;48.058;10.486;2023-07-31T15:08:09;23.60;96.40
38458;DHT22;24239;48.058;10.486;2023-07-31T15:10:34;23.50;96.10
38458;DHT22;24239;48.058;10.486;2023-07-31T15:13:00;23.40;95.50
38458;DHT22;24239;48.058;10.486;2023-07-31T15:15:27;23.30;95.70
38458;DHT22;24239;48.058;10.486;2023-07-31T15:17:55;23.10;96.20
38458;DHT22;24239;48.058;10.486;2023-07-31T15:20:22;23.20;95.90
38458;DHT22;24239;48.058;10.486;2023-07-31T15:22:48;23.30;96.30
38458;DHT22;24239;48.058;10.486;2023-07-31T15:25:14;23.40;95.80
38458;DHT22;24239;48.058;10.486;2023-07-31T15:27:39;23.70;95.30
38458;DHT22;24239;48.058;10.486;2023-07-31T15:30:05;23.80;95.30
38458;DHT22;24239;48.058;10.486;2023-07-31T15:32:32;24.20;95.70